Time;durP1;ratioP1;P1;durP2;ratioP2;P2;SDS_P1;SDS_P2;PMS_P1;PMS_P2;Temp;Humidity;BMP_temperature;BMP_pressure;BME280_temperature;BME280_humidity;BME280_pressure;Samples;Min_cycle;Max_cycle;Signal;HPM_P1;HPM_P2
2023/09/13 00:02:09;;;;;;;3.47;2.13;;;;;;;22.55;55.30;99203.00;5108828;28;20202;-63
2023/09/13 00:04:35;;;;;;;6.93;2.60;;;;;;;22.54;55.64;99206.59;5108560;28;20201;-63
2023/09/13 00:07:02;;;;;;;3.63;2.50;;;;;;;22.56;55.74;99207.22;5107688;28;20824;-62
2023/09/13 00:09:29;;;;;;;3.83;2.63;;;;;;;22.57;55.21;99209.66;5108521;28;20214;-63
2023/09/13 00:11:56;;;;;;;5.17;2.53;;;;;;;22.47;55.95;99206.53;5108505;28;20678;-64
2023/09/13 00:14:24;;;;;;;4.65;2.45;;;;;;;22.42;55.66;99205.47;5107737;28;20613;-63
2023/09/13 00:16:51;;;;;;;5.13;2.50;;;;;;;22.32;56.82;99203.16;5107173;28;20198;-63
2023/09/13 00:19:18;;;;;;;4.77;2.70;;;;;;;22.29;57.56;99204.34;5108551;28;20206;-63
2023/09/13 00:21:45;;;;;;;3.13;2.50;;;;;;;22.29;57.21;99208.75;5107904;28;20205;-63
2023/09/13 00:24:12;;;;;;;4.47;2.33;;;;;;;22.28;57.28;99202.72;5107775;28;20211;-63
2023/09/13 00:26:38;;;;;;;6.30;2.30;;;;;;;22.24;57.36;99201.47;5108478;28;20229;-63
2023/09/13 00:29:05;;;;;;;3.07;2.40;;;;;;;22.15;57.95;99207.75;5108323;28;20224;-63
2023/09/13 00:31:33;;;;;;;3.73;2.10;;;;;;;22.01;58.57;99211.19;5107691;28;20201;-63
2023/09/13 00:34:00;;;;;;;3.73;2.27;;;;;;;21.87;59.20;99211.00;5108124;28;20208;-63
2023/09/13 00:36:27;;;;;;;6.57;2.30;;;;;;;21.75;60.40;99212.44;5108262;28;20719;-63
2023/09/13 00:38:54;;;;;;;5.27;2.77;;;;;;;21.63;60.73;99204.28;5107526;28;20204;-63
2023/09/13 00:41:20;;;;;;;7.17;2.60;;;;;;;21.54;61.80;99204.56;5108011;28;20200;-63
2023/09/13 00:43:47;;;;;;;4.00;2.60;;;;;;;21.57;61.58;99204.19;5108621;28;20202;-63
2023/09/13 00:46:15;;;;;;;5.07;2.70;;;;;;;21.54;62.53;99202.75;5107536;28;20211;-63
2023/09/13 00:48:43;;;;;;;6.37;2.53;;;;;;;21.54;62.63;99205.34;5107409;28;20213;-63
2023/09/13 00:51:11;;;;;;;5.43;2.37;;;;;;;21.52;62.63;99209.13;5108168;28;20216;-63
2023/09/13 00:53:37;;;;;;;4.90;2.67;;;;;;;21.50;63.52;99208.47;5107964;28;20211;-63
2023/09/13 00:56:06;;;;;;;6.27;2.47;;;;;;;21.43;63.77;99208.41;5107633;28;20197;-63
2023/09/13 00:58:34;;;;;;;6.83;2.37;;;;;;;21.39;63.93;99205.34;5108524;28;20211;-63
2023/09/13 01:01:02;;;;;;;5.80;2.60;;;;;;;21.28;64.43;99208.34;5108136;28;20193;-63
2023/09/13 01:03:29;;;;;;;5.80;2.60;;;;;;;21.21;64.90;99210.84;5107036;28;20194;-63
2023/09/13 01:05:58;;;;;;;3.27;2.40;;;;;;;21.11;65.20;99207.69;5107592;28;20218;-63
2023/09/13 01:08:25;;;;;;;3.73;2.30;;;;;;;21.10;66.39;99208.66;5108017;28;20236;-63
2023/09/13 01:10:52;;;;;;;3.07;2.40;;;;;;;21.03;66.46;99202.53;5106947;28;20230;-63
2023/09/13 01:13:19;;;;;;;3.47;2.43;;;;;;;20.97;67.30;99204.06;5106792;28;20223;-63
2023/09/13 01:15:56;;;;;;;3.87;2.50;;;;;;;21.00;67.26;99202.88;5106437;28;20223;-63
2023/09/13 01:18:36;;;;;;;4.03;2.57;;;;;;;20.91;67.99;99199.53;5107191;28;20208;-63
2023/09/13 01:21:27;;;;;;;4.70;2.73;;;;;;;20.87;68.23;99198.28;5108310;28;20205;-63
2023/09/13 01:24:32;;;;;;;3.57;2.47;;;;;;;20.79;68.87;99190.56;5107676;28;20205;-63
2023/09/13 01:27:13;;;;;;;3.60;2.60;;;;;;;20.72;68.92;99190.44;5095122;28;20230;-63
2023/09/13 01:29:45;;;;;;;6.80;2.40;;;;;;;20.71;69.24;99193.22;5111429;28;20199;-63
2023/09/13 01:32:12;;;;;;;5.97;2.47;;;;;;;20.55;70.16;99199.34;5111633;28;20205;-63
2023/09/13 01:34:39;;;;;;;3.27;2.27;;;;;;;20.46;71.03;99200.34;5110798;28;20223;-63
2023/09/13 01:37:06;;;;;;;3.47;2.40;;;;;;;20.49;70.72;99202.59;5111506;28;20207;-63
2023/09/13 01:39:33;;;;;;;6.13;2.33;;;;;;;20.53;71.11;99196.09;5111566;28;20208;-63
2023/09/13 01:42:05;;;;;;;5.40;2.60;;;;;;;20.51;70.88;99198.84;5111051;28;20215;-63
2023/09/13 01:44:34;;;;;;;7.67;2.87;;;;;;;20.48;71.01;99194.00;5111034;28;20634;-63
2023/09/13 01:47:05;;;;;;;3.33;2.20;;;;;;;20.51;71.09;99204.03;5111697;28;20243;-63
2023/09/13 01:49:33;;;;;;;4.00;2.50;;;;;;;20.45;71.74;99194.34;5110925;28;20196;-63
2023/09/13 01:52:00;;;;;;;3.60;2.40;;;;;;;20.51;71.43;99198.84;5110996;28;20205;-63
2023/09/13 01:54:27;;;;;;;2.70;2.23;;;;;;;20.44;71.79;99192.69;5111041;28;20204;-63
2023/09/13 01:56:54;;;;;;;4.07;2.53;;;;;;;20.40;72.09;99199.22;5110871;28;20206;-63
2023/09/13 01:59:20;;;;;;;2.67;2.23;;;;;;;20.37;72.35;99214.34;5110107;28;20227;-63
2023/09/13 02:01:47;;;;;;;5.87;2.63;;;;;;;20.43;72.09;99222.25;5110921;28;20586;-63
2023/09/13 02:04:15;;;;;;;4.20;2.70;;;;;;;20.37;72.26;99222.94;5110747;28;20597;-63
2023/09/13 02:06:42;;;;;;;5.23;2.63;;;;;;;20.25;72.77;99219.94;5110321;28;20242;-63
2023/09/13 02:09:10;;;;;;;3.47;2.60;;;;;;;20.01;73.94;99217.41;5111085;28;20212;-63
2023/09/13 02:11:37;;;;;;;4.97;2.83;;;;;;;20.11;74.23;99224.03;5111163;28;20194;-63
2023/09/13 02:14:04;;;;;;;9.90;3.10;;;;;;;19.92;75.72;99224.41;5110172;28;20201;-63
2023/09/13 02:16:31;;;;;;;5.17;3.30;;;;;;;20.03;76.06;99228.44;5110720;28;20203;-63
2023/09/13 02:18:59;;;;;;;6.07;3.33;;;;;;;19.87;77.82;99221.53;5110567;28;20209;-63
2023/09/13 02:21:27;;;;;;;5.27;3.67;;;;;;;19.81;79.03;99217.00;5110028;28;20199;-63
2023/09/13 02:23:54;;;;;;;6.33;3.50;;;;;;;19.78;79.75;99227.72;5109826;28;20200;-64
2023/09/13 02:26:21;;;;;;;4.53;3.50;;;;;;;19.85;80.37;99228.69;5110927;28;20492;-63
2023/09/13 02:28:48;;;;;;;6.37;3.80;;;;;;;19.80;80.90;99228.38;5110216;28;20231;-64
2023/09/13 02:31:21;;;;;;;6.17;3.73;;;;;;;19.74;81.51;99235.03;5110001;28;20603;-64
2023/09/13 02:33:48;;;;;;;5.70;3.20;;;;;;;19.73;81.60;99235.19;5110394;28;20198;-64
2023/09/13 02:36:15;;;;;;;6.33;3.07;;;;;;;19.72;82.14;99233.56;5110414;28;20202;-64
2023/09/13 02:38:43;;;;;;;6.53;3.40;;;;;;;19.65;82.62;99238.63;5109202;28;20198;-63
2023/09/13 02:41:10;;;;;;;8.73;3.60;;;;;;;19.59;82.96;99234.88;5109795;28;20202;-64
2023/09/13 02:43:37;;;;;;;8.63;3.53;;;;;;;19.53;83.28;99234.72;5110236;28;20209;-64
2023/09/13 02:46:04;;;;;;;7.93;3.70;;;;;;;19.48;84.64;99237.78;5109890;28;20200;-63
2023/09/13 02:48:31;;;;;;;6.60;3.17;;;;;;;19.49;84.87;99244.63;5109737;28;20239;-64
2023/09/13 02:50:57;;;;;;;7.80;3.23;;;;;;;19.41;84.42;99242.03;5109982;28;20596;-63
2023/09/13 02:53:24;;;;;;;11.63;3.17;;;;;;;19.34;84.90;99241.06;5109814;28;20201;-63
2023/09/13 02:55:52;;;;;;;8.23;3.10;;;;;;;19.35;84.98;99243.50;5109358;28;20198;-63
2023/09/13 02:58:19;;;;;;;6.20;3.20;;;;;;;19.37;85.03;99243.31;5110013;28;20700;-64
2023/09/13 03:00:46;;;;;;;6.07;3.17;;;;;;;19.35;85.17;99240.09;5109712;28;20202;-64
2023/09/13 03:03:13;;;;;;;7.57;3.53;;;;;;;19.30;85.42;99242.38;5109438;28;20202;-63
2023/09/13 03:05:39;;;;;;;9.23;2.90;;;;;;;19.29;84.75;99236.38;5109612;28;20206;-64
2023/09/13 03:08:07;;;;;;;5.30;3.17;;;;;;;19.27;83.63;99235.72;5109861;28;20603;-64
2023/09/13 03:10:35;;;;;;;5.10;3.10;;;;;;;19.20;83.71;99245.94;5109176;28;20205;-64
2023/09/13 03:13:03;;;;;;;6.73;3.00;;;;;;;19.18;83.54;99239.28;5109419;28;20260;-64
2023/09/13 03:15:32;;;;;;;4.10;2.90;;;;;;;19.18;82.32;99236.69;5109546;28;20202;-63
2023/09/13 03:18:00;;;;;;;7.77;3.17;;;;;;;19.08;83.04;99242.06;5109089;28;20727;-63
2023/09/13 03:20:27;;;;;;;4.57;3.10;;;;;;;19.10;82.46;99245.28;5108939;28;20254;-64
2023/09/13 03:22:55;;;;;;;5.70;3.27;;;;;;;19.07;82.59;99248.19;5109571;28;20584;-63
2023/09/13 03:25:22;;;;;;;7.10;3.07;;;;;;;18.98;83.35;99241.38;5109520;28;20380;-64
2023/09/13 03:27:49;;;;;;;4.17;2.77;;;;;;;18.99;83.53;99243.00;5108668;28;20243;-63
2023/09/13 03:30:17;;;;;;;8.43;3.20;;;;;;;18.89;83.26;99247.53;5109218;28;20218;-64
2023/09/13 03:32:44;;;;;;;6.00;2.80;;;;;;;18.78;84.04;99252.03;5109089;28;20189;-64
2023/09/13 03:35:11;;;;;;;7.47;3.00;;;;;;;18.77;84.62;99255.59;5108323;28;20580;-64
2023/09/13 03:37:37;;;;;;;5.53;3.20;;;;;;;18.70;85.07;99259.78;5108847;28;20212;-63
2023/09/13 03:40:06;;;;;;;5.50;2.90;;;;;;;18.66;85.79;99261.06;5109325;28;20201;-64
2023/09/13 03:42:34;;;;;;;5.97;2.83;;;;;;;18.67;86.12;99260.06;5108457;28;20200;-64
2023/09/13 03:45:01;;;;;;;5.57;2.80;;;;;;;18.65;86.37;99256.84;5107918;28;20206;-63
2023/09/13 03:47:29;;;;;;;6.47;3.17;;;;;;;18.55;87.10;99251.00;5108601;28;20202;-64
2023/09/13 03:49:56;;;;;;;4.23;2.80;;;;;;;18.49;87.30;99251.63;5108963;28;20205;-64
2023/09/13 03:52:23;;;;;;;7.17;2.90;;;;;;;18.54;88.33;99249.38;5108195;28;20674;-63
2023/09/13 03:54:49;;;;;;;4.43;3.20;;;;;;;18.55;88.03;99253.56;5108403;28;20194;-63
2023/09/13 03:57:16;;;;;;;5.87;3.23;;;;;;;18.49;88.47;99251.63;5108962;28;20685;-64
2023/09/13 03:59:44;;;;;;;4.07;3.00;;;;;;;18.48;89.75;99255.19;5108578;28;20224;-63
2023/09/13 04:02:11;;;;;;;4.87;2.63;;;;;;;18.51;90.06;99249.69;5107949;28;20203;-64
2023/09/13 04:04:39;;;;;;;4.43;3.17;;;;;;;18.50;89.96;99251.47;5108531;28;20198;-63
2023/09/13 04:07:06;;;;;;;4.47;3.07;;;;;;;18.52;89.63;99248.72;5109175;28;20200;-64
2023/09/13 04:09:33;;;;;;;4.53;2.90;;;;;;;18.52;90.34;99246.13;5108026;28;20618;-64
2023/09/13 04:12:00;;;;;;;3.63;2.70;;;;;;;18.43;90.63;99247.06;5108284;28;20555;-63
2023/09/13 04:14:26;;;;;;;3.47;2.83;;;;;;;18.48;90.79;99250.00;5108473;28;20219;-63
2023/09/13 04:16:53;;;;;;;5.47;2.97;;;;;;;18.47;91.40;99253.53;5107998;28;20681;-63
2023/09/13 04:19:20;;;;;;;6.70;2.57;;;;;;;18.49;91.01;99251.63;5107933;28;20213;-64
2023/09/13 04:21:48;;;;;;;4.77;2.63;;;;;;;18.43;91.67;99257.44;5108519;28;20204;-64
2023/09/13 04:24:15;;;;;;;5.30;2.97;;;;;;;18.40;91.72;99248.19;5108423;28;20212;-63
2023/09/13 04:26:42;;;;;;;5.30;3.10;;;;;;;18.45;91.82;99245.16;5107638;28;20206;-63
2023/09/13 04:29:08;;;;;;;6.43;2.80;;;;;;;18.46;91.93;99246.75;5108560;28;20724;-65
2023/09/13 04:31:35;;;;;;;6.67;3.27;;;;;;;18.44;92.21;99248.69;5108471;28;20695;-63
2023/09/13 04:34:03;;;;;;;5.03;2.97;;;;;;;18.50;92.93;99243.72;5107358;28;20686;-63
2023/09/13 04:36:30;;;;;;;7.13;2.80;;;;;;;18.59;92.74;99241.13;5108021;28;20673;-64
2023/09/13 04:38:58;;;;;;;3.63;2.70;;;;;;;18.58;92.18;99245.50;5108374;28;20544;-63
2023/09/13 04:41:24;;;;;;;5.93;3.03;;;;;;;18.57;91.60;99233.53;5107467;28;20721;-63
2023/09/13 04:43:51;;;;;;;5.13;2.80;;;;;;;18.55;91.37;99235.44;5108331;28;20201;-63
2023/09/13 04:46:18;;;;;;;5.63;3.10;;;;;;;18.63;90.79;99237.25;5108269;28;20204;-63
2023/09/13 04:48:45;;;;;;;4.77;2.70;;;;;;;18.68;90.08;99235.81;5107592;28;20230;-64
2023/09/13 04:51:12;;;;;;;5.93;2.97;;;;;;;18.76;89.68;99238.47;5107580;28;20550;-63
2023/09/13 04:53:38;;;;;;;6.57;2.87;;;;;;;18.92;88.16;99232.47;5108175;28;20198;-64
2023/09/13 04:56:07;;;;;;;7.73;2.73;;;;;;;18.98;88.02;99237.00;5108058;28;20695;-63
2023/09/13 04:58:33;;;;;;;10.70;2.80;;;;;;;19.09;86.99;99230.69;5107543;28;20231;-63
2023/09/13 05:01:00;;;;;;;7.77;2.70;;;;;;;19.26;85.93;99233.28;5108294;28;20202;-63
2023/09/13 05:03:27;;;;;;;8.27;3.00;;;;;;;19.33;85.84;99235.06;5110242;28;20235;-63
2023/09/13 05:05:55;;;;;;;3.80;2.30;;;;;;;19.37;84.61;99241.56;5111356;28;20209;-63
2023/09/13 05:08:22;;;;;;;5.00;2.50;;;;;;;19.53;84.58;99239.91;5111758;28;20235;-63
2023/09/13 05:10:51;;;;;;;5.80;3.20;;;;;;;19.64;83.48;99247.34;5112410;28;20205;-63
2023/09/13 05:13:19;;;;;;;4.63;2.73;;;;;;;19.88;84.82;99249.91;5111737;28;20195;-63
2023/09/13 05:15:46;;;;;;;4.40;2.63;;;;;;;20.06;84.64;99246.28;5111486;28;20199;-64
2023/09/13 05:18:13;;;;;;;4.13;2.53;;;;;;;20.25;82.91;99251.09;5111928;28;20206;-63
2023/09/13 05:20:40;;;;;;;6.73;2.90;;;;;;;20.45;82.17;99251.47;5112068;28;20203;-63
2023/09/13 05:23:07;;;;;;;4.03;2.80;;;;;;;20.75;80.71;99251.66;5111181;28;20198;-63
2023/09/13 05:25:33;;;;;;;4.33;2.57;;;;;;;20.93;79.79;99254.78;5111927;28;20203;-63
2023/09/13 05:28:01;;;;;;;4.60;2.80;;;;;;;21.18;79.38;99257.22;5111714;28;20515;-64
2023/09/13 05:30:31;;;;;;;5.53;2.90;;;;;;;21.32;76.87;99253.84;5110868;28;20209;-63
2023/09/13 05:32:58;;;;;;;4.53;2.63;;;;;;;21.38;77.45;99258.38;5111414;28;20648;-63
2023/09/13 05:35:25;;;;;;;7.70;2.40;;;;;;;21.64;76.64;99260.56;5112030;28;20222;-63
2023/09/13 05:37:51;;;;;;;2.93;2.50;;;;;;;21.92;78.73;99257.31;5111172;28;20203;-63
2023/09/13 05:40:18;;;;;;;3.90;2.70;;;;;;;22.24;77.66;99269.19;5111170;28;20205;-64
2023/09/13 05:42:45;;;;;;;2.87;2.50;;;;;;;22.53;75.60;99270.13;5111463;28;20207;-64
2023/09/13 05:45:12;;;;;;;3.23;2.60;;;;;;;22.75;77.82;99268.38;5111127;28;20741;-63
2023/09/13 05:47:40;;;;;;;3.50;2.57;;;;;;;23.13;71.78;99268.97;5110813;28;20653;-63
2023/09/13 05:50:07;;;;;;;4.57;2.42;;;;;;;23.43;75.26;99266.19;5111461;28;20233;-63
2023/09/13 05:52:35;;;;;;;4.72;2.60;;;;;;;23.66;69.67;99274.56;5111114;28;20209;-63
2023/09/13 05:55:01;;;;;;;3.50;2.53;;;;;;;23.98;66.73;99272.38;5110752;28;20907;-63
2023/09/13 05:57:29;;;;;;;7.38;2.90;;;;;;;24.09;69.51;99269.22;5111068;28;20213;-63
2023/09/13 05:59:55;;;;;;;8.35;3.10;;;;;;;24.20;67.33;99274.88;5110898;28;20290;-62
2023/09/13 06:02:22;;;;;;;10.65;3.20;;;;;;;24.39;64.87;99274.16;5111076;28;20674;-63
2023/09/13 06:04:50;;;;;;;5.07;2.72;;;;;;;24.60;65.73;99276.66;5111012;28;20201;-63
2023/09/13 06:07:17;;;;;;;5.95;2.90;;;;;;;24.75;65.39;99273.09;5110843;28;20193;-62
2023/09/13 06:09:44;;;;;;;3.53;2.63;;;;;;;24.91;63.18;99277.16;5110880;28;20717;-63
2023/09/13 06:12:11;;;;;;;4.05;2.90;;;;;;;25.01;60.99;99286.22;5110997;28;20205;-62
2023/09/13 06:14:38;;;;;;;5.38;2.60;;;;;;;25.08;63.10;99279.19;5109512;28;20599;-63
2023/09/13 06:17:05;;;;;;;6.53;3.25;;;;;;;25.04;57.99;99285.00;5111247;28;20197;-63
2023/09/13 06:19:32;;;;;;;4.72;2.58;;;;;;;25.23;61.48;99288.69;5111068;28;20244;-63
2023/09/13 06:22:00;;;;;;;6.68;3.15;;;;;;;25.37;62.85;99282.44;5110754;28;20595;-63
2023/09/13 06:24:27;;;;;;;4.68;2.85;;;;;;;25.49;58.72;99286.06;5110584;28;20206;-62
2023/09/13 06:26:55;;;;;;;5.20;2.85;;;;;;;25.53;58.65;99284.63;5110622;28;20200;-63
2023/09/13 06:29:22;;;;;;;4.45;2.95;;;;;;;25.60;58.09;99289.06;5110500;28;20233;-63
2023/09/13 06:31:50;;;;;;;4.80;2.80;;;;;;;25.52;56.63;99295.31;5110673;28;20224;-63
2023/09/13 06:34:17;;;;;;;4.18;2.60;;;;;;;25.67;56.50;99292.50;5110716;28;20201;-63
2023/09/13 06:36:44;;;;;;;4.68;2.83;;;;;;;25.74;58.53;99288.03;5110425;28;20205;-62
2023/09/13 06:39:12;;;;;;;4.25;2.83;;;;;;;25.94;59.46;99291.44;5110457;28;20209;-62
2023/09/13 06:41:39;;;;;;;4.47;2.83;;;;;;;26.11;55.71;99289.19;5110219;28;20493;-62
2023/09/13 06:44:09;;;;;;;3.58;2.60;;;;;;;26.29;59.45;99291.13;5110441;28;20208;-61
2023/09/13 06:46:36;;;;;;;4.88;2.80;;;;;;;26.32;56.24;99295.94;5110425;28;20250;-60
2023/09/13 06:49:03;;;;;;;6.25;2.75;;;;;;;26.41;55.95;99299.16;5110548;28;20225;-62
2023/09/13 06:51:30;;;;;;;4.38;2.70;;;;;;;26.62;56.01;99301.50;5110087;28;20259;-61
2023/09/13 06:53:57;;;;;;;6.55;2.90;;;;;;;26.90;54.55;99304.78;5109838;28;20205;-62
2023/09/13 06:56:26;;;;;;;4.15;2.47;;;;;;;27.10;53.09;99305.44;5109860;28;20448;-62
2023/09/13 06:58:53;;;;;;;10.70;7.20;;;;;;;27.35;53.94;99309.94;5109784;28;20724;-61
2023/09/13 07:01:20;;;;;;;4.85;2.78;;;;;;;27.62;52.66;99306.06;5110222;28;20242;-62
2023/09/13 07:03:47;;;;;;;3.72;2.70;;;;;;;27.85;50.72;99304.66;5109843;28;20246;-62
2023/09/13 07:06:14;;;;;;;4.20;2.67;;;;;;;28.09;52.08;99306.41;5109600;27;20193;-63
2023/09/13 07:08:41;;;;;;;5.93;2.83;;;;;;;28.30;51.20;99301.72;5109613;28;20233;-64
2023/09/13 07:11:08;;;;;;;3.70;2.83;;;;;;;28.54;47.50;99298.22;5109811;28;20438;-62
2023/09/13 07:13:36;;;;;;;20.08;10.27;;;;;;;28.87;49.08;99302.22;5109645;28;20193;-62
2023/09/13 07:16:03;;;;;;;5.20;2.90;;;;;;;28.87;50.56;99302.22;5109847;28;20194;-62
2023/09/13 07:18:29;;;;;;;2.97;2.42;;;;;;;29.18;47.49;99309.06;5109672;27;20193;-62
2023/09/13 07:20:56;;;;;;;3.17;2.40;;;;;;;29.04;45.06;99305.84;5109822;28;20216;-62
2023/09/13 07:23:23;;;;;;;3.95;2.63;;;;;;;29.34;44.76;99308.41;5109713;28;20197;-61
2023/09/13 07:25:50;;;;;;;3.78;2.75;;;;;;;29.64;45.33;99309.34;5108718;28;20208;-61
2023/09/13 07:28:17;;;;;;;4.72;2.90;;;;;;;29.83;42.77;99318.75;5109357;28;20201;-61
2023/09/13 07:30:45;;;;;;;4.15;2.45;;;;;;;29.94;43.60;99323.19;5109070;28;20229;-62
2023/09/13 07:33:12;;;;;;;4.55;3.10;;;;;;;30.06;43.44;99322.38;5109383;28;20209;-62
2023/09/13 07:35:39;;;;;;;4.32;2.90;;;;;;;30.07;43.41;99326.63;5109138;28;20198;-61
2023/09/13 07:38:05;;;;;;;5.15;2.75;;;;;;;30.31;43.83;99333.47;5109322;28;20287;-62
2023/09/13 07:40:32;;;;;;;4.70;2.88;;;;;;;30.55;47.67;99328.91;5109552;28;20194;-62
2023/09/13 07:42:59;;;;;;;4.80;2.60;;;;;;;30.94;42.59;99330.94;5108961;28;20647;-62
2023/09/13 07:45:26;;;;;;;3.83;2.60;;;;;;;31.04;39.40;99337.22;5109321;28;20236;-62
2023/09/13 07:47:54;;;;;;;6.22;2.50;;;;;;;31.19;40.76;99334.03;5108916;28;20251;-62
2023/09/13 07:50:31;;;;;;;3.28;2.28;;;;;;;31.09;39.95;99328.56;5108698;28;20243;-64
2023/09/13 07:52:58;;;;;;;5.07;2.60;;;;;;;31.22;40.42;99327.47;5108824;28;20205;-62
2023/09/13 07:55:26;;;;;;;5.45;2.88;;;;;;;31.62;40.06;99327.31;5108908;28;20539;-62
2023/09/13 07:57:53;;;;;;;3.90;2.70;;;;;;;31.90;46.16;99322.91;5108828;28;20330;-62
2023/09/13 08:00:20;;;;;;;8.20;4.88;;;;;;;31.62;36.97;99327.31;5108649;28;20247;-62
2023/09/13 08:02:48;;;;;;;4.43;2.78;;;;;;;32.08;39.97;99330.56;5108691;28;20209;-63
2023/09/13 08:05:17;;;;;;;4.15;2.75;;;;;;;31.71;37.25;99330.34;5108827;28;20251;-64
2023/09/13 08:07:44;;;;;;;5.28;2.40;;;;;;;31.96;41.44;99327.25;5108387;28;20693;-62
2023/09/13 08:10:11;;;;;;;3.60;2.72;;;;;;;32.25;38.30;99314.63;5108454;28;20229;-62
2023/09/13 08:12:38;;;;;;;3.30;2.60;;;;;;;32.53;43.90;99318.16;5108620;28;20689;-62
2023/09/13 08:15:07;;;;;;;4.70;2.50;;;;;;;32.57;40.02;99317.38;5108597;28;20607;-62
2023/09/13 08:17:34;;;;;;;4.40;2.60;;;;;;;32.74;40.21;99316.50;5108505;28;20694;-62
2023/09/13 08:20:01;;;;;;;4.68;2.65;;;;;;;32.76;38.58;99317.06;5108309;28;20197;-62
2023/09/13 08:22:29;;;;;;;6.75;2.60;;;;;;;32.95;39.55;99317.47;5108638;28;20205;-62
2023/09/13 08:24:56;;;;;;;4.25;2.30;;;;;;;32.93;37.09;99320.38;5108363;28;20197;-62
2023/09/13 08:27:23;;;;;;;11.07;2.60;;;;;;;32.68;36.67;99316.44;5106755;28;20193;-62
2023/09/13 08:29:50;;;;;;;4.43;2.22;;;;;;;32.94;37.56;99316.69;5108195;28;20473;-62
2023/09/13 08:32:17;;;;;;;7.72;2.60;;;;;;;32.81;35.66;99311.78;5108516;28;20308;-62
2023/09/13 08:34:44;;;;;;;4.18;2.72;;;;;;;32.72;36.81;99308.00;5108478;28;20201;-62
2023/09/13 08:37:10;;;;;;;2.45;2.25;;;;;;;32.82;36.50;99308.09;5107306;28;20205;-62
2023/09/13 08:39:38;;;;;;;7.05;2.60;;;;;;;32.87;38.56;99310.78;5108299;28;20198;-62
2023/09/13 08:42:06;;;;;;;3.67;2.70;;;;;;;33.19;41.19;99302.06;5108375;28;20198;-62
2023/09/13 08:44:35;;;;;;;3.80;2.40;;;;;;;33.37;42.41;99306.97;5108190;28;20337;-62
2023/09/13 08:47:05;;;;;;;6.03;2.67;;;;;;;33.72;43.70;99300.31;5108230;28;20228;-62
2023/09/13 08:49:35;;;;;;;4.63;2.60;;;;;;;33.83;37.30;99301.94;5108300;28;20360;-62
2023/09/13 08:52:03;;;;;;;4.78;2.40;;;;;;;33.78;36.36;99301.94;5108185;28;20241;-62
2023/09/13 08:54:32;;;;;;;3.42;2.22;;;;;;;33.36;34.11;99302.69;5108364;28;20216;-62
2023/09/13 08:57:02;;;;;;;4.30;2.42;;;;;;;33.47;34.16;99306.22;5108513;28;20201;-62
2023/09/13 08:59:29;;;;;;;3.30;2.40;;;;;;;33.54;37.06;99297.03;5108266;28;20576;-62
2023/09/13 09:01:59;;;;;;;3.25;2.40;;;;;;;33.70;40.66;99297.13;5108052;28;20202;-62
2023/09/13 09:04:26;;;;;;;2.97;2.30;;;;;;;33.38;32.81;99300.59;5108053;28;20301;-62
2023/09/13 09:06:53;;;;;;;4.30;2.72;;;;;;;32.98;33.98;99296.56;5107881;28;20224;-62
2023/09/13 09:09:23;;;;;;;4.20;2.35;;;;;;;32.90;31.81;99297.84;5107835;28;20236;-62
2023/09/13 09:11:55;;;;;;;4.25;2.22;;;;;;;33.08;39.18;99302.00;5108005;28;20198;-62
2023/09/13 09:14:24;;;;;;;6.40;2.45;;;;;;;33.49;33.29;99291.66;5107847;28;20209;-62
2023/09/13 09:16:53;;;;;;;4.53;2.65;;;;;;;33.82;38.95;99300.34;5107796;28;20202;-62
2023/09/13 09:19:21;;;;;;;4.68;2.70;;;;;;;33.85;34.03;99299.03;5108006;28;20205;-62
2023/09/13 09:21:48;;;;;;;3.85;2.50;;;;;;;33.61;32.25;99299.44;5107974;28;20197;-62
2023/09/13 09:24:15;;;;;;;6.75;2.85;;;;;;;33.18;32.20;99300.47;5107693;28;20197;-62
2023/09/13 09:26:42;;;;;;;4.63;2.53;;;;;;;33.02;32.57;99300.34;5107619;28;20202;-62
2023/09/13 09:29:11;;;;;;;6.30;2.40;;;;;;;33.18;31.86;99305.78;5107740;28;20218;-62
2023/09/13 09:31:40;;;;;;;3.38;2.50;;;;;;;33.19;34.73;99304.69;5107852;28;20258;-62
2023/09/13 09:34:09;;;;;;;4.07;2.33;;;;;;;33.59;34.86;99291.75;5107935;28;20200;-62
2023/09/13 09:36:40;;;;;;;6.68;2.58;;;;;;;33.97;32.86;99287.13;5107849;28;20193;-62
2023/09/13 09:39:07;;;;;;;6.55;2.80;;;;;;;34.06;32.38;99294.63;5107879;28;20262;-62
2023/09/13 09:41:35;;;;;;;4.95;2.53;;;;;;;34.22;30.67;99288.31;5107784;28;20208;-62
2023/09/13 09:44:03;;;;;;;8.27;2.60;;;;;;;34.19;33.75;99283.53;5107825;28;20202;-62
2023/09/13 09:46:30;;;;;;;5.18;2.40;;;;;;;34.23;31.87;99282.75;5107667;28;20198;-62
2023/09/13 09:49:00;;;;;;;3.97;2.70;;;;;;;34.55;36.41;99286.28;5108387;28;20197;-62
2023/09/13 09:51:28;;;;;;;4.75;2.60;;;;;;;34.69;31.71;99285.50;5110064;28;20509;-62
2023/09/13 09:53:55;;;;;;;5.15;3.20;;;;;;;34.52;32.07;99278.81;5109750;28;20288;-62
2023/09/13 09:56:23;;;;;;;8.13;2.97;;;;;;;34.65;30.45;99286.31;5110436;28;20197;-62
2023/09/13 09:58:50;;;;;;;7.50;2.33;;;;;;;34.22;29.72;99283.81;5111349;28;20205;-62
2023/09/13 10:01:18;;;;;;;7.30;2.80;;;;;;;34.27;34.73;99280.38;5111174;28;20205;-62
2023/09/13 10:03:45;;;;;;;6.00;2.50;;;;;;;34.38;31.01;99274.00;5110900;28;20670;-62
2023/09/13 10:06:15;;;;;;;4.18;2.80;;;;;;;34.19;30.51;99267.63;5111306;27;20201;-62
2023/09/13 10:08:44;;;;;;;10.10;5.00;;;;;;;34.61;33.46;99264.78;5111572;28;20232;-62
2023/09/13 10:11:12;;;;;;;5.22;2.83;;;;;;;34.92;33.88;99275.44;5110825;28;20232;-62
2023/09/13 10:13:40;;;;;;;6.75;2.70;;;;;;;34.91;31.29;99273.84;5110835;28;20205;-62
2023/09/13 10:16:08;;;;;;;4.70;2.78;;;;;;;34.88;31.66;99274.38;5110967;28;20209;-62
2023/09/13 10:18:38;;;;;;;8.00;3.00;;;;;;;35.02;30.98;99279.94;5111179;28;20210;-62
2023/09/13 10:21:07;;;;;;;7.15;2.58;;;;;;;35.01;33.78;99275.69;5110894;28;20229;-62
2023/09/13 10:23:40;;;;;;;3.88;2.60;;;;;;;34.73;32.01;99272.50;5111184;28;20232;-62
2023/09/13 10:26:09;;;;;;;8.50;4.05;;;;;;;34.93;31.24;99267.16;5110978;28;20201;-62
2023/09/13 10:28:39;;;;;;;5.88;2.83;;;;;;;35.06;32.28;99267.75;5110444;28;20197;-62
2023/09/13 10:31:12;;;;;;;9.02;2.70;;;;;;;35.03;30.66;99270.91;5110752;28;20271;-62
2023/09/13 10:33:44;;;;;;;5.13;2.70;;;;;;;35.14;30.56;99272.50;5110370;28;20198;-62
2023/09/13 10:36:16;;;;;;;6.85;2.80;;;;;;;35.33;31.02;99270.09;5110435;28;20201;-62
2023/09/13 10:38:49;;;;;;;6.82;2.67;;;;;;;35.46;29.28;99263.41;5110250;28;20198;-62
2023/09/13 10:41:18;;;;;;;7.95;2.50;;;;;;;35.41;27.99;99269.53;5110267;28;20292;-62
2023/09/13 10:43:46;;;;;;;3.47;2.03;;;;;;;35.32;29.76;99263.97;5110142;28;20205;-62
2023/09/13 10:46:14;;;;;;;3.53;2.50;;;;;;;34.90;28.13;99261.59;5110246;28;20212;-62
2023/09/13 10:48:42;;;;;;;6.60;2.80;;;;;;;35.03;29.13;99254.97;5110331;28;20197;-62
2023/09/13 10:51:12;;;;;;;5.75;2.72;;;;;;;35.14;30.99;99246.75;5110051;28;20736;-62
2023/09/13 10:53:41;;;;;;;4.05;2.33;;;;;;;35.23;28.30;99244.34;5110242;28;20199;-62
2023/09/13 10:56:11;;;;;;;9.05;2.63;;;;;;;35.20;33.63;99231.56;5110401;28;20193;-62
2023/09/13 10:58:40;;;;;;;6.22;2.70;;;;;;;35.36;30.20;99221.69;5109783;28;20190;-62
2023/09/13 11:01:07;;;;;;;5.28;2.67;;;;;;;35.18;29.27;99231.03;5109542;28;20670;-62
2023/09/13 11:03:34;;;;;;;7.50;2.40;;;;;;;34.97;27.82;99232.09;5109803;28;20619;-62
2023/09/13 11:06:02;;;;;;;6.22;2.05;;;;;;;35.30;26.63;99236.84;5109763;28;20692;-62
2023/09/13 11:08:30;;;;;;;6.40;2.00;;;;;;;35.40;27.54;99228.03;5109366;28;20202;-62
2023/09/13 11:11:07;;;;;;;5.32;2.50;;;;;;;35.52;30.74;99230.41;5109544;28;20293;-62
2023/09/13 11:13:35;;;;;;;8.32;2.50;;;;;;;35.61;31.00;99226.16;5109743;28;20204;-62
2023/09/13 11:16:04;;;;;;;5.32;2.42;;;;;;;35.49;30.53;99226.44;5109704;28;20220;-62
2023/09/13 11:18:31;;;;;;;6.65;3.25;;;;;;;35.43;32.25;99234.69;5109488;28;20206;-62
2023/09/13 11:20:58;;;;;;;7.50;2.55;;;;;;;35.58;29.16;99218.72;5109446;28;20202;-62
2023/09/13 11:23:25;;;;;;;3.58;2.10;;;;;;;35.71;29.29;99227.97;5109774;28;20216;-62
2023/09/13 11:25:54;;;;;;;6.35;2.60;;;;;;;35.52;28.75;99223.25;5109249;28;20201;-62
2023/09/13 11:28:33;;;;;;;6.07;2.63;;;;;;;35.69;28.33;99224.78;5109486;28;20666;-62
2023/09/13 11:31:02;;;;;;;6.15;2.70;;;;;;;35.74;29.60;99228.22;5109492;28;20232;-62
2023/09/13 11:33:29;;;;;;;6.35;2.70;;;;;;;35.55;30.14;99219.28;5109292;28;20193;-62
2023/09/13 11:35:57;;;;;;;4.25;2.40;;;;;;;35.79;32.83;99214.91;5109347;28;20582;-62
2023/09/13 11:38:24;;;;;;;6.20;2.63;;;;;;;35.78;30.46;99218.63;5109026;28;20236;-62